< < Back
Terminal Aerodrome Forecast


Current Version              Previous Versions:   1  2  3  4  5  6  7  8  9  

Terminal Aerodrome Forecast

751
FTUS42 KGSP 080857 AAA
TAFCLT
TAF AMD
KCLT 080857Z 0809/0906 24003KT P6SM FEW250
     FM081300 21004KT P6SM SCT100
     FM081700 22010G18KT P6SM VCSH FEW040 SCT060 BKN090 PROB30
      0819/0823 5SM -SHRA OVC030
     FM090000 25007KT P6SM BKN070=



Latest METAR

703
SAUS70 KWBC 082100 RRL
MTRCLT
METAR KCLT 082052Z 24014G19KT 10SM FEW045 BKN110 BKN250 11/M02 A2965 RMK
AO2 SLP040 SHRA DSNT W-NW 60000 T01061017 56014


USA.gov is the U.S. government's official web portal to all federal, state and local government web resources and services.